Ameghino, Argentina
Current Conditions -  °F | °C
As of 3:00 PM on Saturday 20 Dec 2014 (Local Time) from SAOC Reporting Station
Scattered Clouds Scattered Clouds  
Wind Chill: 23°   Ceiling: Unl
Heat Index: 23°   Visibility: 6mi
Dew Point:   Wind: 22mph
Humidity: 38%   Direction: 140°SE
Pressure: 29.68"   Gusts: NA
Location:  34.83°S, 62.45°W
Report Text: SAOC 201800Z 14019KT 9999 SCT020 SCT10023/08 Q1005
Loading
Personal Weather Stations






























Interactive Weather Map New forecast layout! Learn more

10-Day Weather Forecast

Advertisements
Track Severe Weather on mobile